Time;durP1;ratioP1;P1;durP2;ratioP2;P2;SDS_P1;SDS_P2;PMS_P1;PMS_P2;Temp;Humidity;BMP_temperature;BMP_pressure;BME280_temperature;BME280_humidity;BME280_pressure;Samples;Min_cycle;Max_cycle;Signal;HPM_P1;HPM_P2
2022/08/17 00:00:10;;;;;;;5.82;2.88;;;;;;;27.42;53.96;100442.09;5115138;28;20058;-73
2022/08/17 00:03:08;;;;;;;2.95;2.58;;;;;;;27.34;54.48;100458.94;5115327;28;20043;-72
2022/08/17 00:05:41;;;;;;;5.38;3.35;;;;;;;27.41;54.58;100460.16;5112892;28;20039;-73
2022/08/17 00:08:11;;;;;;;3.38;3.08;;;;;;;27.46;54.07;100451.34;5115155;28;20055;-73
2022/08/17 00:10:40;;;;;;;5.43;2.67;;;;;;;27.50;54.28;100452.13;5114704;28;20039;-73
2022/08/17 00:13:12;;;;;;;3.55;2.60;;;;;;;27.53;53.60;100445.72;5114359;28;20052;-72
2022/08/17 00:15:43;;;;;;;5.28;2.60;;;;;;;27.68;53.89;100442.91;5113047;28;20036;-72
2022/08/17 00:18:12;;;;;;;3.05;2.85;;;;;;;27.53;54.17;100439.28;5114390;28;20054;-72
2022/08/17 00:21:05;;;;;;;4.53;2.95;;;;;;;27.48;54.10;100443.28;5114374;28;20506;-72
2022/08/17 00:23:40;;;;;;;4.03;3.00;;;;;;;27.51;54.66;100445.28;5114310;28;20043;-72
2022/08/17 00:26:17;;;;;;;4.65;2.90;;;;;;;27.55;53.42;100448.09;5099940;28;20070;-73
2022/08/17 00:29:06;;;;;;;3.85;3.10;;;;;;;27.57;53.59;100434.47;5113787;28;20052;-73
2022/08/17 00:31:35;;;;;;;3.45;2.50;;;;;;;27.56;53.14;100439.28;5114027;28;20071;-72
2022/08/17 00:34:04;;;;;;;3.25;2.95;;;;;;;27.49;53.56;100428.84;5114722;28;20039;-73
2022/08/17 00:36:31;;;;;;;3.42;2.70;;;;;;;27.56;53.10;100430.06;5113937;28;20043;-73
2022/08/17 00:39:02;;;;;;;5.50;3.03;;;;;;;27.43;53.93;100426.84;5114093;28;20044;-73
2022/08/17 00:41:29;;;;;;;5.63;3.47;;;;;;;27.41;54.59;100429.25;5113573;28;20070;-72
2022/08/17 00:44:01;;;;;;;2.88;2.67;;;;;;;27.45;54.79;100430.84;5113869;28;20052;-72
2022/08/17 00:46:36;;;;;;;4.75;2.78;;;;;;;27.45;54.83;100433.66;5113804;28;20059;-73
2022/08/17 00:49:07;;;;;;;2.78;2.40;;;;;;;27.33;55.17;100426.41;5114284;28;20066;-72
2022/08/17 00:52:03;;;;;;;2.55;2.35;;;;;;;27.27;55.66;100422.38;5113681;28;20493;-72
2022/08/17 00:54:42;;;;;;;4.88;2.42;;;;;;;27.30;55.91;100423.59;5112795;28;20062;-72
2022/08/17 00:57:16;;;;;;;5.20;2.70;;;;;;;27.14;56.18;100413.56;5114256;28;20036;-73
2022/08/17 00:59:56;;;;;;;3.15;2.45;;;;;;;27.13;56.90;100408.34;5113757;28;20055;-72
2022/08/17 01:02:34;;;;;;;2.55;2.30;;;;;;;27.00;56.39;100411.53;5113279;28;20047;-73
2022/08/17 01:05:22;;;;;;;4.07;2.50;;;;;;;27.09;56.30;100414.75;5113437;28;20431;-73
2022/08/17 01:07:53;;;;;;;6.15;3.05;;;;;;;27.10;56.33;100407.94;5113579;28;20047;-73
2022/08/17 01:10:27;;;;;;;3.97;2.80;;;;;;;27.03;57.15;100410.72;5112660;28;20039;-73
2022/08/17 01:13:16;;;;;;;4.00;2.53;;;;;;;26.89;57.54;100407.88;5113140;28;20663;-72
2022/08/17 01:16:14;;;;;;;3.42;2.70;;;;;;;26.82;58.28;100414.25;5112907;28;20036;-72
2022/08/17 01:18:46;;;;;;;4.18;2.70;;;;;;;26.81;57.88;100419.06;5112644;28;20047;-72
2022/08/17 01:21:27;;;;;;;3.67;2.65;;;;;;;26.76;58.47;100416.66;5110788;28;20066;-72
2022/08/17 01:23:56;;;;;;;3.72;2.45;;;;;;;26.73;58.63;100419.44;5113270;28;20710;-72
2022/08/17 01:26:24;;;;;;;3.80;2.70;;;;;;;26.78;58.01;100413.44;5113187;28;20052;-72
2022/08/17 01:28:54;;;;;;;3.03;2.72;;;;;;;26.74;58.69;100419.06;5112293;28;20379;-72
2022/08/17 01:31:27;;;;;;;5.57;2.78;;;;;;;26.75;58.81;100420.66;5111508;28;20047;-72
2022/08/17 01:33:59;;;;;;;4.05;2.85;;;;;;;26.65;59.51;100427.84;5113204;28;20450;-72
2022/08/17 01:36:28;;;;;;;3.17;2.90;;;;;;;26.60;60.13;100414.19;5113082;28;20044;-72
2022/08/17 01:38:56;;;;;;;3.78;2.63;;;;;;;26.66;59.86;100423.03;5111592;28;20058;-72
2022/08/17 01:41:24;;;;;;;3.60;2.63;;;;;;;26.64;59.93;100425.44;5112302;28;20051;-72
2022/08/17 01:44:04;;;;;;;2.90;2.45;;;;;;;26.65;60.34;100415.81;5109500;28;20055;-72
2022/08/17 01:46:35;;;;;;;2.90;2.38;;;;;;;26.61;59.90;100413.00;5111987;28;20048;-72
2022/08/17 01:49:09;;;;;;;3.42;2.78;;;;;;;26.62;59.83;100416.59;5112800;28;20063;-72
2022/08/17 01:51:38;;;;;;;4.65;3.45;;;;;;;26.64;59.47;100419.81;5112711;28;20059;-72
2022/08/17 01:54:11;;;;;;;4.82;3.03;;;;;;;26.48;61.57;100417.34;5105942;28;20048;-72
2022/08/17 01:56:44;;;;;;;4.25;3.10;;;;;;;26.49;61.59;100425.34;5106138;28;20047;-72
2022/08/17 01:59:15;;;;;;;4.05;3.00;;;;;;;26.52;62.06;100430.19;5112700;28;20428;-72
2022/08/17 02:01:44;;;;;;;3.90;3.05;;;;;;;26.45;62.13;100432.97;5113009;28;20513;-72
2022/08/17 02:04:12;;;;;;;3.40;3.10;;;;;;;26.45;62.89;100435.78;5112117;28;20039;-72
2022/08/17 02:06:42;;;;;;;3.35;3.05;;;;;;;26.42;62.48;100445.78;5112361;28;20039;-72
2022/08/17 02:09:23;;;;;;;4.07;3.40;;;;;;;26.28;62.74;100448.50;5112998;28;20050;-72
2022/08/17 02:11:54;;;;;;;3.33;3.00;;;;;;;26.27;62.41;100458.91;5098718;28;20047;-72
2022/08/17 02:14:24;;;;;;;3.53;2.90;;;;;;;26.27;62.49;100461.72;5091543;28;20504;-72
2022/08/17 02:16:56;;;;;;;4.30;3.63;;;;;;;26.17;62.57;100454.00;5104210;28;20044;-72
2022/08/17 02:19:24;;;;;;;5.38;2.97;;;;;;;26.07;62.50;100460.34;5106341;28;20051;-72
2022/08/17 02:21:53;;;;;;;3.72;3.33;;;;;;;26.06;62.38;100455.94;5073174;28;20048;-72
2022/08/17 02:24:26;;;;;;;8.05;3.45;;;;;;;26.06;62.56;100459.56;5096036;28;20046;-72
2022/08/17 02:27:14;;;;;;;4.82;3.58;;;;;;;26.00;62.86;100456.31;5111828;28;20051;-72
2022/08/17 02:29:42;;;;;;;4.18;2.97;;;;;;;26.01;62.98;100465.53;5110975;28;20485;-72
2022/08/17 02:32:22;;;;;;;4.50;3.25;;;;;;;26.07;63.51;100465.97;5111162;28;20052;-72
2022/08/17 02:34:59;;;;;;;4.00;3.60;;;;;;;25.99;63.39;100473.50;5101413;28;20049;-72
2022/08/17 02:37:28;;;;;;;3.60;3.30;;;;;;;25.95;63.15;100462.28;5111681;28;20055;-72
2022/08/17 02:39:57;;;;;;;3.85;3.50;;;;;;;25.99;63.40;100459.50;5111379;28;20378;-72
2022/08/17 02:42:32;;;;;;;5.75;3.70;;;;;;;25.98;62.89;100469.91;5109904;28;20058;-72
2022/08/17 02:45:02;;;;;;;4.15;3.60;;;;;;;25.94;62.68;100469.06;5109694;28;20059;-72
2022/08/17 02:47:30;;;;;;;3.88;3.42;;;;;;;25.90;62.87;100469.06;5111918;28;20054;-72
2022/08/17 02:49:58;;;;;;;6.00;3.63;;;;;;;25.90;63.26;100468.22;5111368;28;20056;-72
2022/08/17 02:52:32;;;;;;;4.88;3.70;;;;;;;25.93;62.87;100467.47;5111409;28;20058;-72
2022/08/17 02:55:22;;;;;;;6.18;3.30;;;;;;;26.07;61.72;100468.75;5111433;28;20052;-72
2022/08/17 02:57:51;;;;;;;3.95;3.55;;;;;;;26.16;61.39;100469.22;5111785;28;20046;-72
2022/08/17 03:00:27;;;;;;;4.47;3.40;;;;;;;26.08;62.03;100473.97;5111239;28;20043;-72
2022/08/17 03:02:56;;;;;;;4.50;3.28;;;;;;;25.98;62.45;100481.13;5110872;28;20040;-72
2022/08/17 03:05:26;;;;;;;4.28;3.88;;;;;;;26.00;62.29;100466.72;5111120;28;20058;-72
2022/08/17 03:07:54;;;;;;;4.43;3.75;;;;;;;25.87;62.49;100469.84;5111643;28;20394;-72
2022/08/17 03:10:23;;;;;;;4.10;3.60;;;;;;;25.89;62.25;100475.84;5111947;28;20529;-72
2022/08/17 03:12:52;;;;;;;3.92;3.53;;;;;;;25.79;62.77;100472.97;5111661;28;20048;-72
2022/08/17 03:15:30;;;;;;;5.10;3.67;;;;;;;25.81;62.42;100468.56;5111444;28;20508;-73
2022/08/17 03:17:59;;;;;;;3.35;3.05;;;;;;;25.78;62.86;100458.16;5116069;28;20062;-72
2022/08/17 03:20:30;;;;;;;5.95;3.65;;;;;;;25.72;63.05;100463.28;5116085;28;20039;-72
2022/08/17 03:22:58;;;;;;;3.97;3.60;;;;;;;25.70;62.61;100468.50;5111881;28;20040;-72
2022/08/17 03:25:35;;;;;;;4.25;3.38;;;;;;;25.71;62.62;100470.09;5115828;28;20046;-72
2022/08/17 03:28:06;;;;;;;4.35;3.78;;;;;;;25.76;62.17;100464.13;5115906;28;20051;-72
2022/08/17 03:30:34;;;;;;;6.18;3.65;;;;;;;25.73;62.54;100461.31;5116072;28;20043;-72
2022/08/17 03:33:05;;;;;;;4.07;3.67;;;;;;;25.72;63.12;100466.09;5112620;28;20487;-72
2022/08/17 03:35:35;;;;;;;5.85;3.80;;;;;;;25.67;62.59;100457.25;5115944;28;20043;-72
2022/08/17 03:38:04;;;;;;;4.57;4.00;;;;;;;25.72;62.34;100456.91;5115286;28;20048;-72
2022/08/17 03:40:31;;;;;;;4.38;3.55;;;;;;;25.78;62.04;100452.53;5115627;28;20044;-72
2022/08/17 03:43:21;;;;;;;5.55;3.75;;;;;;;25.68;63.19;100444.84;5115020;28;20052;-73
2022/08/17 03:57:13;;;;;;;5.45;4.03;;;;;;;25.61;63.25;100426.00;5115389;28;20052;-72
2022/08/17 03:59:41;;;;;;;4.50;3.80;;;;;;;25.54;63.85;100426.72;5114822;28;20396;-72
2022/08/17 04:02:21;;;;;;;6.07;4.00;;;;;;;25.52;64.25;100431.09;5113942;28;20039;-72
2022/08/17 04:04:49;;;;;;;5.07;3.95;;;;;;;25.52;63.69;100431.91;5115069;28;20056;-72
2022/08/17 04:07:19;;;;;;;7.78;3.70;;;;;;;25.56;64.21;100440.34;5114527;28;20043;-72
2022/08/17 04:09:47;;;;;;;5.60;4.10;;;;;;;25.41;64.45;100442.97;5114713;28;20052;-72
2022/08/17 04:12:17;;;;;;;7.60;4.03;;;;;;;25.70;64.30;100451.66;5114373;28;20043;-73
2022/08/17 04:14:45;;;;;;;4.03;3.67;;;;;;;25.75;63.66;100451.31;5114827;28;20054;-72
2022/08/17 04:17:23;;;;;;;5.05;3.90;;;;;;;25.89;63.25;100449.81;5114612;28;20058;-72
2022/08/17 04:19:51;;;;;;;4.57;3.97;;;;;;;25.97;63.16;100447.88;5114473;28;20043;-72
2022/08/17 04:22:20;;;;;;;4.18;3.70;;;;;;;25.76;63.65;100452.13;5114663;28;20050;-72
2022/08/17 04:25:17;;;;;;;5.28;3.65;;;;;;;25.73;63.85;100448.09;5113779;28;20078;-72
2022/08/17 04:27:45;;;;;;;5.60;3.80;;;;;;;25.67;64.61;100451.66;5114022;28;20054;-72
2022/08/17 04:30:14;;;;;;;5.38;4.32;;;;;;;25.54;65.12;100451.13;5104278;28;20052;-72
2022/08/17 04:32:58;;;;;;;4.03;3.33;;;;;;;25.49;65.53;100450.28;5113975;28;20043;-72
2022/08/17 04:35:40;;;;;;;7.00;4.22;;;;;;;25.54;64.74;100446.34;5113983;28;20051;-73
2022/08/17 04:38:10;;;;;;;6.47;4.05;;;;;;;25.53;65.47;100441.09;5114158;28;20056;-73
2022/08/17 04:43:26;;;;;;;5.00;4.10;;;;;;;25.69;62.83;100447.25;5111436;28;20440;-72
2022/08/17 04:46:00;;;;;;;7.22;3.85;;;;;;;25.81;62.43;100459.38;5113929;28;20039;-72
2022/08/17 04:48:33;;;;;;;6.38;3.67;;;;;;;25.86;62.63;100456.22;5113734;28;20044;-72
2022/08/17 04:51:13;;;;;;;4.90;3.83;;;;;;;25.87;62.74;100453.03;5114077;28;20044;-72
2022/08/17 04:53:44;;;;;;;4.80;3.60;;;;;;;25.89;63.91;100463.81;5113946;28;20051;-72
2022/08/17 04:56:22;;;;;;;4.00;3.60;;;;;;;26.01;62.64;100465.53;5112835;28;20051;-72
2022/08/17 04:58:52;;;;;;;6.03;3.90;;;;;;;26.01;63.01;100457.13;5112722;28;20047;-73
2022/08/17 05:01:22;;;;;;;5.65;4.40;;;;;;;26.15;63.42;100464.81;5113224;28;20047;-72
2022/08/17 05:03:54;;;;;;;4.40;4.00;;;;;;;26.22;60.57;100462.06;5112549;28;20046;-72
2022/08/17 05:06:26;;;;;;;4.15;3.60;;;;;;;26.19;60.21;100462.03;5114064;28;20043;-73
2022/08/17 05:08:55;;;;;;;6.05;3.88;;;;;;;26.28;60.40;100470.94;5113271;28;20059;-73
2022/08/17 05:11:24;;;;;;;4.20;3.80;;;;;;;26.23;60.17;100486.13;5113735;28;20043;-72
2022/08/17 05:13:53;;;;;;;5.63;3.67;;;;;;;26.68;59.51;100499.19;5112592;28;20047;-73
2022/08/17 05:16:24;;;;;;;6.28;4.07;;;;;;;26.95;59.12;100498.94;5113159;28;20047;-71
2022/08/17 05:18:52;;;;;;;5.45;4.55;;;;;;;27.23;58.39;100511.47;5113419;28;20052;-72
2022/08/17 05:21:22;;;;;;;7.47;4.85;;;;;;;27.18;58.54;100514.69;5113752;28;20071;-72
2022/08/17 05:23:50;;;;;;;7.95;5.03;;;;;;;27.04;59.08;100512.63;5112583;28;20105;-72
2022/08/17 05:26:24;;;;;;;7.47;4.00;;;;;;;27.31;58.59;100507.47;5100431;28;20047;-74
2022/08/17 05:28:57;;;;;;;10.23;4.72;;;;;;;27.28;57.87;100519.53;5101216;28;20044;-74
2022/08/17 05:31:33;;;;;;;9.43;5.00;;;;;;;27.07;58.31;100521.06;5098605;28;20044;-75
2022/08/17 05:34:10;;;;;;;5.85;5.22;;;;;;;27.05;57.83;100534.69;5107708;28;20382;-74
2022/08/17 05:36:40;;;;;;;6.93;4.78;;;;;;;26.92;58.51;100541.84;5101154;28;20039;-75
2022/08/17 05:39:13;;;;;;;4.88;4.40;;;;;;;27.18;58.22;100548.38;5112305;28;20051;-75
2022/08/17 05:41:46;;;;;;;7.78;5.20;;;;;;;27.06;57.85;100549.53;5113362;28;20397;-74
2022/08/17 05:44:16;;;;;;;8.85;5.40;;;;;;;27.21;58.49;100541.97;5113217;28;20405;-74
2022/08/17 05:46:50;;;;;;;6.20;4.82;;;;;;;27.48;57.57;100539.63;5094760;28;20051;-74
2022/08/17 05:49:26;;;;;;;7.30;5.40;;;;;;;27.61;57.52;100548.50;5113080;28;20055;-74
2022/08/17 05:52:09;;;;;;;8.32;6.00;;;;;;;27.33;58.32;100547.22;5113463;28;20040;-74
2022/08/17 05:54:58;;;;;;;6.55;5.00;;;;;;;27.69;57.17;100556.94;5113459;28;20047;-74
2022/08/17 05:57:40;;;;;;;8.30;4.53;;;;;;;27.75;57.08;100563.78;5081417;28;20046;-74
2022/08/17 06:00:25;;;;;;;7.50;5.20;;;;;;;27.74;57.30;100559.38;5105152;28;20052;-66
2022/08/17 06:03:03;;;;;;;7.35;5.32;;;;;;;27.70;57.69;100567.00;5102339;28;20046;-66
2022/08/17 06:05:50;;;;;;;6.22;4.70;;;;;;;28.22;55.46;100585.50;5112191;28;20055;-66
2022/08/17 06:08:30;;;;;;;5.70;4.45;;;;;;;28.31;54.67;100577.50;5094911;28;20519;-66
2022/08/17 06:11:08;;;;;;;6.60;3.83;;;;;;;28.39;54.73;100583.94;5112297;28;20040;-66
2022/08/17 06:13:43;;;;;;;6.03;4.57;;;;;;;28.25;55.04;100585.53;5109818;28;20494;-66
2022/08/17 06:16:19;;;;;;;8.27;4.25;;;;;;;28.20;54.91;100583.09;5099613;28;20051;-66
2022/08/17 06:19:05;;;;;;;6.00;4.85;;;;;;;28.11;55.04;100585.50;5112093;28;20044;-66
2022/08/17 06:21:38;;;;;;;6.88;4.90;;;;;;;28.39;54.11;100593.16;5112148;28;20372;-66
2022/08/17 06:24:35;;;;;;;7.03;4.38;;;;;;;28.58;53.82;100593.94;5111805;28;20390;-66
2022/08/17 06:27:29;;;;;;;7.13;5.57;;;;;;;28.16;54.34;100588.72;5112540;28;20055;-66
2022/08/17 06:30:27;;;;;;;11.20;5.78;;;;;;;27.80;55.49;100601.97;5100251;28;20047;-66
2022/08/17 06:33:22;;;;;;;5.50;4.10;;;;;;;28.32;54.53;100595.19;5106042;28;20409;-66
2022/08/17 06:35:53;;;;;;;8.00;4.72;;;;;;;28.51;53.79;100597.59;5105524;28;20051;-66
2022/08/17 06:38:47;;;;;;;7.80;4.63;;;;;;;28.67;54.02;100605.59;5109995;28;20055;-66
2022/08/17 06:41:37;;;;;;;5.28;4.28;;;;;;;28.68;54.35;100603.56;5096749;28;20412;-66
2022/08/17 06:44:22;;;;;;;6.28;4.85;;;;;;;28.39;54.03;100615.69;5111379;28;20055;-66
2022/08/17 06:47:30;;;;;;;6.25;4.47;;;;;;;28.28;55.15;100618.50;5111013;28;20078;-66
2022/08/17 06:49:58;;;;;;;5.30;4.07;;;;;;;28.28;53.83;100607.25;5110590;28;20051;-66
2022/08/17 06:52:33;;;;;;;5.95;4.38;;;;;;;28.27;53.76;100611.28;5112216;28;20383;-66
2022/08/17 06:55:25;;;;;;;9.32;3.92;;;;;;;28.50;53.65;100606.44;5094960;28;20406;-66
2022/08/17 06:57:58;;;;;;;8.20;4.15;;;;;;;28.70;52.82;100593.50;5112457;28;20028;-66
2022/08/17 07:00:46;;;;;;;6.53;4.32;;;;;;;28.77;52.98;100594.69;5112131;28;20054;-66
2022/08/17 07:03:23;;;;;;;6.05;4.00;;;;;;;28.72;52.62;100606.41;5093604;28;20379;-66
2022/08/17 07:05:56;;;;;;;4.00;3.47;;;;;;;28.56;51.27;100602.81;5095988;28;20047;-66
2022/08/17 07:08:54;;;;;;;4.78;3.17;;;;;;;28.43;51.74;100590.34;5091990;28;20054;-66
2022/08/17 07:11:26;;;;;;;6.63;3.20;;;;;;;28.38;52.96;100588.75;5097773;28;20406;-67
2022/08/17 07:14:35;;;;;;;3.45;3.15;;;;;;;28.49;52.16;100599.19;5100246;28;20507;-67
2022/08/17 07:17:10;;;;;;;4.90;3.42;;;;;;;28.43;52.23;100585.53;5097271;28;20055;-66
2022/08/17 07:19:40;;;;;;;3.25;2.88;;;;;;;28.56;51.48;100573.84;5098004;28;20048;-66
2022/08/17 07:22:32;;;;;;;7.22;3.88;;;;;;;28.66;50.89;100577.84;5111910;28;20043;-66
2022/08/17 07:25:20;;;;;;;2.83;2.63;;;;;;;28.67;51.21;100591.53;5101610;28;20490;-66
2022/08/17 07:27:51;;;;;;;4.45;3.53;;;;;;;28.64;50.23;100581.06;5092266;28;20042;-67
2022/08/17 07:30:26;;;;;;;7.72;2.90;;;;;;;28.65;50.40;100574.25;5106663;28;20036;-66
2022/08/17 07:33:01;;;;;;;3.13;2.83;;;;;;;28.84;50.62;100587.03;5111978;28;20477;-66
2022/08/17 07:35:29;;;;;;;4.82;3.05;;;;;;;28.73;51.31;100574.22;5111905;28;20051;-66
2022/08/17 07:38:29;;;;;;;4.07;3.15;;;;;;;28.92;50.37;100590.69;5109565;28;20047;-66
2022/08/17 07:41:00;;;;;;;4.10;3.10;;;;;;;28.96;50.62;100577.41;5099424;28;20048;-66
2022/08/17 07:43:46;;;;;;;3.92;3.47;;;;;;;29.05;50.34;100562.88;5093048;28;20055;-66
2022/08/17 07:49:30;;;;;;;4.07;3.13;;;;;;;29.44;49.23;100549.81;4845357;27;20042;-66
2022/08/17 07:52:03;;;;;;;3.85;3.03;;;;;;;29.59;48.75;100547.72;4858014;29;20412;-66
2022/08/17 07:54:51;;;;;;;5.90;3.72;;;;;;;29.84;48.59;100558.00;4857764;29;20049;-66
2022/08/17 07:57:19;;;;;;;5.35;3.83;;;;;;;29.58;48.89;100559.41;4853422;29;20050;-66
2022/08/17 07:59:58;;;;;;;6.70;3.70;;;;;;;29.64;49.01;100550.09;4858384;29;20056;-66
2022/08/17 08:02:33;;;;;;;5.97;3.10;;;;;;;29.53;47.86;100548.56;4859581;29;20056;-66
2022/08/17 08:05:19;;;;;;;6.30;3.45;;;;;;;29.46;48.02;100552.19;4859935;29;20052;-66
2022/08/17 08:08:36;;;;;;;4.18;3.53;;;;;;;29.57;47.70;100547.31;4850829;29;20049;-65
2022/08/17 08:11:14;;;;;;;6.70;3.42;;;;;;;29.73;48.41;100555.28;4849753;29;20058;-65
2022/08/17 08:13:44;;;;;;;6.18;3.35;;;;;;;29.41;47.11;100558.28;4845635;29;20054;-65
2022/08/17 08:16:26;;;;;;;6.00;3.38;;;;;;;29.85;48.25;100565.25;4858855;29;20061;-66
2022/08/17 08:18:58;;;;;;;4.95;3.65;;;;;;;29.85;47.30;100570.06;4846447;29;20057;-66
2022/08/17 08:21:45;;;;;;;6.63;3.53;;;;;;;29.98;47.68;100557.09;4848254;29;20042;-66
2022/08/17 08:24:19;;;;;;;4.28;3.78;;;;;;;29.64;48.11;100560.56;4848511;29;20053;-66
2022/08/17 08:26:59;;;;;;;5.93;4.03;;;;;;;29.67;48.34;100550.50;4848053;29;20042;-66
2022/08/17 08:29:51;;;;;;;3.92;3.30;;;;;;;29.73;47.71;100548.81;4853622;29;20060;-66
2022/08/17 08:32:35;;;;;;;3.88;2.85;;;;;;;30.00;47.12;100539.75;4856565;29;20065;-66
2022/08/17 08:35:08;;;;;;;;;;;;;;;30.15;46.39;100551.75;4860706;29;20049;-66
2022/08/17 08:37:43;;;;;;;3.90;3.60;;;;;;;30.36;46.50;100561.22;4859266;29;19943;-66
2022/08/17 08:40:35;;;;;;;6.10;3.50;;;;;;;30.44;46.77;100554.28;4861241;29;20049;-66
2022/08/17 08:43:07;;;;;;;4.07;3.22;;;;;;;30.44;47.23;100559.94;4854308;29;20413;-67
2022/08/17 09:07:53;;;;;;;3.45;2.60;;;;;;;29.45;46.49;100554.22;5068159;28;20427;-67
2022/08/17 09:10:59;;;;;;;2.45;2.25;;;;;;;30.02;46.78;100562.72;5058621;28;20056;-66
2022/08/17 09:13:45;;;;;;;3.42;2.22;;;;;;;30.02;43.74;100571.97;5054804;28;20056;-67
2022/08/17 09:16:34;;;;;;;4.30;2.53;;;;;;;30.43;45.18;100555.50;5065944;28;20037;-67
2022/08/17 09:19:18;;;;;;;2.10;1.90;;;;;;;30.54;43.68;100553.38;5054508;28;20048;-66
2022/08/17 09:21:58;;;;;;;3.38;1.92;;;;;;;30.69;42.45;100561.72;5036901;28;20056;-67
2022/08/17 09:24:36;;;;;;;1.65;1.55;;;;;;;30.82;42.36;100559.97;5039689;28;20053;-74
2022/08/17 09:27:13;;;;;;;2.67;2.08;;;;;;;31.01;40.82;100548.41;5044453;28;20045;-74
2022/08/17 09:29:50;;;;;;;2.20;1.60;;;;;;;30.98;41.09;100558.53;5048322;28;20053;-73
2022/08/17 09:32:32;;;;;;;1.80;1.70;;;;;;;30.82;42.24;100548.66;5048234;28;20049;-74
2022/08/17 09:35:09;;;;;;;2.00;1.90;;;;;;;30.80;41.55;100559.56;5048149;28;20053;-74
2022/08/17 09:37:57;;;;;;;1.95;1.70;;;;;;;31.01;42.37;100554.88;5048411;28;20045;-74
2022/08/17 09:40:32;;;;;;;1.73;1.63;;;;;;;30.99;41.30;100557.34;5047231;28;20049;-73
2022/08/17 09:43:35;;;;;;;2.42;1.65;;;;;;;31.08;40.54;100560.44;5048112;28;20399;-72
2022/08/17 09:46:14;;;;;;;2.42;1.90;;;;;;;30.98;40.41;100561.38;5048058;28;20055;-72
2022/08/17 09:48:54;;;;;;;1.83;1.73;;;;;;;31.14;41.38;100562.81;5033462;28;20046;-73
2022/08/17 09:51:32;;;;;;;2.65;1.83;;;;;;;31.38;40.43;100556.03;5029843;28;20041;-73
2022/08/17 09:54:26;;;;;;;2.53;1.70;;;;;;;31.41;40.84;100554.38;5033686;28;20037;-74
2022/08/17 09:57:24;;;;;;;4.30;2.03;;;;;;;31.33;41.24;100550.84;5037422;28;20112;-73
2022/08/17 10:00:10;;;;;;;1.92;1.70;;;;;;;31.42;39.65;100543.88;5039992;28;20496;-73
2022/08/17 10:02:54;;;;;;;1.98;1.70;;;;;;;31.46;38.71;100550.25;5035070;28;20046;-73
2022/08/17 10:05:26;;;;;;;1.45;1.35;;;;;;;31.67;38.27;100548.34;5044484;28;20526;-73
2022/08/17 10:08:11;;;;;;;3.50;2.10;;;;;;;31.84;37.60;100543.63;5047684;28;20041;-73
2022/08/17 10:11:07;;;;;;;1.80;1.70;;;;;;;32.00;36.40;100555.13;5047919;28;20120;-73
2022/08/17 10:13:44;;;;;;;2.70;1.83;;;;;;;31.88;36.79;100556.53;5040518;28;20053;-73
2022/08/17 10:16:29;;;;;;;2.35;1.70;;;;;;;31.69;36.68;100543.06;5045923;28;20491;-73
2022/08/17 10:19:14;;;;;;;2.33;1.48;;;;;;;31.47;37.35;100538.53;5032100;28;20072;-73
2022/08/17 10:27:56;;;;;;;2.28;1.92;;;;;;;32.06;37.15;100558.28;5032705;28;20053;-73
2022/08/17 10:30:27;;;;;;;2.55;1.75;;;;;;;32.06;37.00;100558.28;5034981;28;20514;-73
2022/08/17 10:33:14;;;;;;;1.70;1.60;;;;;;;32.00;38.33;100563.59;5030934;28;20073;-72
2022/08/17 10:35:46;;;;;;;4.30;2.00;;;;;;;32.25;37.85;100570.84;5028998;28;20052;-74
2022/08/17 10:38:24;;;;;;;3.10;1.75;;;;;;;32.48;36.12;100566.44;5033316;28;20052;-73
2022/08/17 10:40:52;;;;;;;1.98;1.67;;;;;;;32.25;36.38;100561.59;5033946;28;20042;-73
2022/08/17 10:43:37;;;;;;;2.22;2.03;;;;;;;32.36;37.56;100562.19;5034224;28;20045;-74
2022/08/17 10:47:00;;;;;;;2.20;2.00;;;;;;;32.24;37.37;100568.44;5033685;28;20057;-73
2022/08/17 10:49:54;;;;;;;2.63;1.92;;;;;;;32.27;36.30;100574.06;5006855;28;20062;-74
2022/08/17 10:52:22;;;;;;;2.72;1.90;;;;;;;32.18;36.11;100571.81;4995068;28;20046;-73
2022/08/17 10:54:51;;;;;;;3.25;1.80;;;;;;;32.57;36.45;100577.19;5015516;28;20049;-73
2022/08/17 10:57:31;;;;;;;;;;;;;;;32.60;38.17;100569.88;5033376;28;20068;-74
2022/08/17 11:00:14;;;;;;;2.60;2.17;;;;;;;32.43;37.61;100564.09;5033750;28;20291;-74
2022/08/17 11:02:48;;;;;;;2.33;2.13;;;;;;;32.58;37.22;100568.28;5032602;28;20045;-74
2022/08/17 11:05:39;;;;;;;2.60;1.90;;;;;;;32.69;37.86;100570.88;5033128;28;20049;-74
2022/08/17 11:08:37;;;;;;;2.40;2.08;;;;;;;32.51;37.19;100564.78;5032269;28;20054;-73
2022/08/17 11:11:39;;;;;;;2.80;1.80;;;;;;;32.79;36.41;100552.06;5022384;28;20519;-74
2022/08/17 11:14:19;;;;;;;2.03;1.83;;;;;;;32.82;37.95;100551.22;5023668;28;20049;-74
2022/08/17 11:17:13;;;;;;;3.20;1.92;;;;;;;32.78;37.23;100552.53;5031531;28;20042;-74
2022/08/17 11:19:59;;;;;;;;;;;;;;;32.79;37.19;100554.13;5032351;28;20053;-75
2022/08/17 11:22:51;;;;;;;3.03;1.90;;;;;;;32.59;37.66;100543.56;5030773;28;19921;-74
2022/08/17 11:25:32;;;;;;;6.47;2.37;;;;;;;32.87;37.71;100535.72;5031880;28;20404;-74
2022/08/17 11:28:33;;;;;;;2.80;1.95;;;;;;;32.66;38.62;100543.44;5029820;28;20049;-75
2022/08/17 11:31:26;;;;;;;2.40;2.20;;;;;;;32.83;38.44;100529.31;5030142;28;20111;-74
2022/08/17 11:34:18;;;;;;;2.88;2.10;;;;;;;32.67;38.35;100528.03;5032714;28;20052;-75
2022/08/17 11:37:06;;;;;;;4.53;2.03;;;;;;;32.64;37.07;100528.13;5029619;28;20064;-74
2022/08/17 11:39:48;;;;;;;3.25;2.35;;;;;;;32.50;38.07;100526.38;5032526;28;20049;-74
2022/08/17 11:42:38;;;;;;;2.47;2.28;;;;;;;32.67;39.29;100510.22;5032374;28;20037;-75
2022/08/17 11:45:24;;;;;;;2.63;2.30;;;;;;;32.66;38.43;100509.44;5028692;28;20060;-74
2022/08/17 11:54:16;;;;;;;2.42;2.17;;;;;;;32.68;39.18;100506.16;5031737;28;20072;-75
2022/08/17 11:57:25;;;;;;;3.03;2.38;;;;;;;32.44;39.55;100498.53;5032307;28;20053;-74
2022/08/17 11:59:57;;;;;;;2.60;2.30;;;;;;;32.75;39.85;100496.72;5032185;28;20034;-75
2022/08/17 12:02:29;;;;;;;3.83;2.50;;;;;;;32.70;40.14;100501.66;5031326;28;20384;-75
2022/08/17 12:05:11;;;;;;;5.05;2.60;;;;;;;32.81;39.72;100504.28;5032102;28;20080;-74
2022/08/17 12:07:50;;;;;;;4.63;2.30;;;;;;;32.58;40.29;100499.50;5032810;28;20080;-75
2022/08/17 12:10:29;;;;;;;5.53;2.38;;;;;;;32.49;39.80;100507.78;5030003;28;20038;-74
2022/08/17 12:13:09;;;;;;;2.72;2.45;;;;;;;32.43;40.05;100508.28;5033150;28;20549;-74
2022/08/17 12:15:47;;;;;;;4.13;2.55;;;;;;;32.71;39.78;100520.25;5032739;28;20057;-75
2022/08/17 12:18:32;;;;;;;3.17;2.25;;;;;;;32.98;40.41;100512.84;5032392;28;20435;-75
2022/08/17 12:21:21;;;;;;;5.88;2.45;;;;;;;33.06;39.38;100514.31;5032424;28;20041;-75
2022/08/17 12:24:21;;;;;;;4.57;2.80;;;;;;;32.96;40.15;100524.66;5032092;28;20041;-75
2022/08/17 12:26:52;;;;;;;8.77;3.13;;;;;;;32.91;40.42;100518.66;5032032;28;20045;-75
2022/08/17 12:29:20;;;;;;;5.45;2.85;;;;;;;33.07;41.69;100527.25;5031911;28;20045;-75
2022/08/17 12:32:11;;;;;;;4.28;2.67;;;;;;;33.35;40.25;100536.34;5032352;28;20053;-76
2022/08/17 12:34:42;;;;;;;2.53;2.28;;;;;;;33.38;42.01;100529.00;5031794;28;20045;-75
2022/08/17 12:37:23;;;;;;;3.78;2.30;;;;;;;33.32;40.72;100527.91;5032181;28;20053;-67
2022/08/17 12:40:01;;;;;;;3.03;2.80;;;;;;;33.30;41.07;100530.38;5032406;28;20060;-66
2022/08/17 12:42:38;;;;;;;3.97;2.47;;;;;;;33.06;41.64;100534.16;5032605;28;20064;-67
2022/08/17 12:45:19;;;;;;;3.80;2.55;;;;;;;33.33;40.45;100538.03;5032297;28;20044;-67
2022/08/17 12:47:48;;;;;;;3.45;2.80;;;;;;;33.37;41.07;100533.03;5031939;28;20492;-67
2022/08/17 12:50:16;;;;;;;4.25;2.65;;;;;;;33.16;40.45;100523.81;5030476;28;20495;-66
2022/08/17 12:52:57;;;;;;;4.45;3.10;;;;;;;33.22;40.39;100516.38;5032358;28;20041;-67
2022/08/17 12:55:35;;;;;;;2.60;2.40;;;;;;;33.15;41.16;100502.38;5019158;28;20050;-67
2022/08/17 12:58:05;;;;;;;6.07;2.88;;;;;;;33.30;40.57;100507.69;5032892;28;20076;-66
2022/08/17 13:00:47;;;;;;;4.70;2.63;;;;;;;33.34;41.29;100511.25;5032211;28;20050;-67
2022/08/17 13:03:22;;;;;;;2.88;2.58;;;;;;;33.70;39.97;100507.59;5032082;28;20037;-66
2022/08/17 13:06:07;;;;;;;3.42;2.40;;;;;;;34.19;39.47;100508.78;5032217;28;20416;-66
2022/08/17 13:08:39;;;;;;;4.05;2.70;;;;;;;34.21;38.79;100514.84;5031526;28;20060;-66